sensor_id;sensor_type;location;lat;lon;timestamp;pressure;altitude;pressure_sealevel;temperature;humidity
32875;BME280;40468;42.128;24.750;2023-09-19T00:01:17;100119.38;;;18.88;53.35
32875;BME280;40468;42.128;24.750;2023-09-19T00:02:53;100117.78;;;18.85;53.34
32875;BME280;40468;42.128;24.750;2023-09-19T00:04:24;100109.28;;;18.81;53.44
32875;BME280;40468;42.128;24.750;2023-09-19T00:05:59;100115.47;;;18.80;53.21
32875;BME280;40468;42.128;24.750;2023-09-19T00:07:30;100112.84;;;18.80;53.37
32875;BME280;40468;42.128;24.750;2023-09-19T00:09:01;100113.81;;;18.79;53.36
32875;BME280;40468;42.128;24.750;2023-09-19T00:10:33;100108.03;;;18.74;53.59
32875;BME280;40468;42.128;24.750;2023-09-19T00:12:07;100113.31;;;18.74;53.34
32875;BME280;40468;42.128;24.750;2023-09-19T00:13:39;100116.91;;;18.73;53.51
32875;BME280;40468;42.128;24.750;2023-09-19T00:15:09;100112.88;;;18.68;53.47
32875;BME280;40468;42.128;24.750;2023-09-19T00:16:41;100112.28;;;18.64;53.58
32875;BME280;40468;42.128;24.750;2023-09-19T00:18:12;100115.38;;;18.58;53.65
32875;BME280;40468;42.128;24.750;2023-09-19T00:19:45;100116.31;;;18.57;53.68
32875;BME280;40468;42.128;24.750;2023-09-19T00:21:16;100108.63;;;18.54;53.72
32875;BME280;40468;42.128;24.750;2023-09-19T00:22:49;100108.00;;;18.50;53.46
32875;BME280;40468;42.128;24.750;2023-09-19T00:24:22;100111.47;;;18.51;53.61
32875;BME280;40468;42.128;24.750;2023-09-19T00:25:53;100109.81;;;18.50;53.51
32875;BME280;40468;42.128;24.750;2023-09-19T00:27:29;100109.06;;;18.48;53.57
32875;BME280;40468;42.128;24.750;2023-09-19T00:29:00;100104.53;;;18.50;53.47
32875;BME280;40468;42.128;24.750;2023-09-19T00:30:36;100108.75;;;18.52;53.32
32875;BME280;40468;42.128;24.750;2023-09-19T00:32:08;100105.38;;;18.50;53.31
32875;BME280;40468;42.128;24.750;2023-09-19T00:33:40;100100.09;;;18.50;53.17
32875;BME280;40468;42.128;24.750;2023-09-19T00:35:10;100104.53;;;18.50;53.26
32875;BME280;40468;42.128;24.750;2023-09-19T00:36:42;100106.34;;;18.49;53.21
32875;BME280;40468;42.128;24.750;2023-09-19T00:38:13;100104.53;;;18.50;53.19
32875;BME280;40468;42.128;24.750;2023-09-19T00:39:46;100099.25;;;18.50;53.09
32875;BME280;40468;42.128;24.750;2023-09-19T00:41:17;100101.78;;;18.51;53.06
32875;BME280;40468;42.128;24.750;2023-09-19T00:42:50;100097.38;;;18.52;52.94
32875;BME280;40468;42.128;24.750;2023-09-19T00:44:20;100100.72;;;18.54;52.73
32875;BME280;40468;42.128;24.750;2023-09-19T00:45:53;100097.97;;;18.55;52.89
32875;BME280;40468;42.128;24.750;2023-09-19T00:47:24;100102.19;;;18.58;52.97
32875;BME280;40468;42.128;24.750;2023-09-19T00:48:56;100102.19;;;18.58;52.81
32875;BME280;40468;42.128;24.750;2023-09-19T00:50:27;100096.91;;;18.58;52.76
32875;BME280;40468;42.128;24.750;2023-09-19T00:51:59;100096.91;;;18.58;52.68
32875;BME280;40468;42.128;24.750;2023-09-19T00:53:30;100097.75;;;18.58;52.51
32875;BME280;40468;42.128;24.750;2023-09-19T00:55:02;100100.63;;;18.55;52.71
32875;BME280;40468;42.128;24.750;2023-09-19T00:56:33;100097.97;;;18.55;52.55
32875;BME280;40468;42.128;24.750;2023-09-19T00:58:06;100098.81;;;18.56;52.59
32875;BME280;40468;42.128;24.750;2023-09-19T00:59:36;100088.72;;;18.50;52.50
32875;BME280;40468;42.128;24.750;2023-09-19T01:01:08;100101.53;;;18.54;52.42
32875;BME280;40468;42.128;24.750;2023-09-19T01:02:42;100091.88;;;18.55;52.41
32875;BME280;40468;42.128;24.750;2023-09-19T01:04:14;100092.69;;;18.55;52.53
32875;BME280;40468;42.128;24.750;2023-09-19T01:05:44;100103.25;;;18.55;52.35
32875;BME280;40468;42.128;24.750;2023-09-19T01:07:16;100096.16;;;18.56;52.60
32875;BME280;40468;42.128;24.750;2023-09-19T01:08:46;100104.09;;;18.56;52.42
32875;BME280;40468;42.128;24.750;2023-09-19T01:10:18;100101.53;;;18.54;52.47
32875;BME280;40468;42.128;24.750;2023-09-19T01:11:50;100100.84;;;18.52;52.62
32875;BME280;40468;42.128;24.750;2023-09-19T01:13:28;100097.38;;;18.52;52.44
32875;BME280;40468;42.128;24.750;2023-09-19T01:15:03;100096.63;;;18.50;52.41
32875;BME280;40468;42.128;24.750;2023-09-19T01:16:42;100097.59;;;18.49;52.70
32875;BME280;40468;42.128;24.750;2023-09-19T01:18:16;100093.25;;;18.48;52.50
32875;BME280;40468;42.128;24.750;2023-09-19T01:20:03;100095.06;;;18.47;52.35
32875;BME280;40468;42.128;24.750;2023-09-19T01:21:36;100090.63;;;18.48;52.55
32875;BME280;40468;42.128;24.750;2023-09-19T01:23:14;100090.63;;;18.48;52.52
32875;BME280;40468;42.128;24.750;2023-09-19T01:24:54;100093.38;;;18.46;52.49
32875;BME280;40468;42.128;24.750;2023-09-19T01:26:40;100097.06;;;18.44;52.53
32875;BME280;40468;42.128;24.750;2023-09-19T01:28:31;100085.78;;;18.41;52.64
32875;BME280;40468;42.128;24.750;2023-09-19T01:30:09;100090.47;;;18.38;52.61
32875;BME280;40468;42.128;24.750;2023-09-19T01:31:42;100096.78;;;18.35;52.63
32875;BME280;40468;42.128;24.750;2023-09-19T01:33:13;100091.13;;;18.29;52.87
32875;BME280;40468;42.128;24.750;2023-09-19T01:34:46;100107.25;;;18.24;53.07
32875;BME280;40468;42.128;24.750;2023-09-19T01:36:17;100092.63;;;18.20;53.23
32875;BME280;40468;42.128;24.750;2023-09-19T01:37:48;100095.38;;;18.18;53.10
32875;BME280;40468;42.128;24.750;2023-09-19T01:39:20;100092.03;;;18.16;53.21
32875;BME280;40468;42.128;24.750;2023-09-19T01:40:53;100096.88;;;18.10;53.39
32875;BME280;40468;42.128;24.750;2023-09-19T01:42:31;100100.06;;;18.02;53.35
32875;BME280;40468;42.128;24.750;2023-09-19T01:44:09;100096.28;;;17.93;53.46
32875;BME280;40468;42.128;24.750;2023-09-19T01:45:45;100107.28;;;17.87;53.37
32875;BME280;40468;42.128;24.750;2023-09-19T01:47:19;100100.72;;;17.80;53.51
32875;BME280;40468;42.128;24.750;2023-09-19T01:48:56;100103.88;;;17.72;53.69
32875;BME280;40468;42.128;24.750;2023-09-19T01:50:29;100095.59;;;17.66;53.71
32875;BME280;40468;42.128;24.750;2023-09-19T01:52:04;100088.09;;;17.60;53.89
32875;BME280;40468;42.128;24.750;2023-09-19T01:53:40;100086.75;;;17.54;53.93
32875;BME280;40468;42.128;24.750;2023-09-19T01:55:14;100090.53;;;17.50;53.75
32875;BME280;40468;42.128;24.750;2023-09-19T01:56:48;100090.72;;;17.47;54.09
32875;BME280;40468;42.128;24.750;2023-09-19T01:58:21;100086.84;;;17.40;54.09
32875;BME280;40468;42.128;24.750;2023-09-19T01:59:59;100089.25;;;17.30;54.27
32875;BME280;40468;42.128;24.750;2023-09-19T02:01:32;100080.19;;;17.21;54.53
32875;BME280;40468;42.128;24.750;2023-09-19T02:03:05;100089.78;;;17.10;54.87
32875;BME280;40468;42.128;24.750;2023-09-19T02:04:35;100090.94;;;17.05;55.07
32875;BME280;40468;42.128;24.750;2023-09-19T02:06:07;100089.97;;;17.06;55.16
32875;BME280;40468;42.128;24.750;2023-09-19T02:07:41;100091.88;;;17.04;54.82
32875;BME280;40468;42.128;24.750;2023-09-19T02:09:13;100093.69;;;17.04;55.10
32875;BME280;40468;42.128;24.750;2023-09-19T02:10:44;100083.78;;;17.08;54.77
32875;BME280;40468;42.128;24.750;2023-09-19T02:12:18;100087.03;;;17.11;54.90
32875;BME280;40468;42.128;24.750;2023-09-19T02:13:49;100093.16;;;17.12;54.80
32875;BME280;40468;42.128;24.750;2023-09-19T02:15:24;100081.69;;;17.13;54.87
32875;BME280;40468;42.128;24.750;2023-09-19T02:16:56;100082.53;;;17.13;54.69
32875;BME280;40468;42.128;24.750;2023-09-19T02:18:28;100081.47;;;17.16;54.49
32875;BME280;40468;42.128;24.750;2023-09-19T02:19:58;100078.66;;;17.19;54.51
32875;BME280;40468;42.128;24.750;2023-09-19T02:21:30;100075.06;;;17.20;54.45
32875;BME280;40468;42.128;24.750;2023-09-19T02:23:02;100075.88;;;17.20;54.51
32875;BME280;40468;42.128;24.750;2023-09-19T02:24:33;100077.69;;;17.20;54.53
32875;BME280;40468;42.128;24.750;2023-09-19T02:26:05;100072.41;;;17.20;54.54
32875;BME280;40468;42.128;24.750;2023-09-19T02:27:36;100076.63;;;17.22;54.42
32875;BME280;40468;42.128;24.750;2023-09-19T02:29:09;100064.53;;;17.20;54.34
32875;BME280;40468;42.128;24.750;2023-09-19T02:30:42;100072.13;;;17.24;54.35
32875;BME280;40468;42.128;24.750;2023-09-19T02:32:15;100073.16;;;17.22;54.37
32875;BME280;40468;42.128;24.750;2023-09-19T02:33:48;100079.28;;;17.22;54.63
32875;BME280;40468;42.128;24.750;2023-09-19T02:35:20;100075.16;;;17.18;54.65
32875;BME280;40468;42.128;24.750;2023-09-19T02:36:50;100076.31;;;17.14;54.67
32875;BME280;40468;42.128;24.750;2023-09-19T02:38:23;100072.00;;;17.13;54.82
32875;BME280;40468;42.128;24.750;2023-09-19T02:39:55;100073.81;;;17.13;54.93
32875;BME280;40468;42.128;24.750;2023-09-19T02:41:27;100077.16;;;17.15;54.65
32875;BME280;40468;42.128;24.750;2023-09-19T02:42:59;100071.88;;;17.15;54.90
32875;BME280;40468;42.128;24.750;2023-09-19T02:44:31;100072.63;;;17.17;54.66
32875;BME280;40468;42.128;24.750;2023-09-19T02:46:02;100081.38;;;17.17;54.92
32875;BME280;40468;42.128;24.750;2023-09-19T02:47:35;100075.16;;;17.18;54.78
32875;BME280;40468;42.128;24.750;2023-09-19T02:49:06;100075.88;;;17.20;54.68
32875;BME280;40468;42.128;24.750;2023-09-19T02:50:38;100082.75;;;17.23;54.69
32875;BME280;40468;42.128;24.750;2023-09-19T02:52:10;100076.72;;;17.21;54.67
32875;BME280;40468;42.128;24.750;2023-09-19T02:53:44;100075.88;;;17.20;54.47
32875;BME280;40468;42.128;24.750;2023-09-19T02:55:18;100076.00;;;17.19;54.38
32875;BME280;40468;42.128;24.750;2023-09-19T02:56:49;100072.63;;;17.17;54.85
32875;BME280;40468;42.128;24.750;2023-09-19T02:58:20;100069.78;;;17.20;54.63
32875;BME280;40468;42.128;24.750;2023-09-19T02:59:53;100075.88;;;17.20;54.70
32875;BME280;40468;42.128;24.750;2023-09-19T03:01:24;100076.72;;;17.21;54.55
32875;BME280;40468;42.128;24.750;2023-09-19T03:02:58;100071.47;;;17.21;54.50
32875;BME280;40468;42.128;24.750;2023-09-19T03:04:29;100072.63;;;17.17;54.59
32875;BME280;40468;42.128;24.750;2023-09-19T03:06:01;100075.34;;;17.15;54.68
32875;BME280;40468;42.128;24.750;2023-09-19T03:07:33;100071.16;;;17.13;54.77
32875;BME280;40468;42.128;24.750;2023-09-19T03:09:05;100071.38;;;17.10;54.60
32875;BME280;40468;42.128;24.750;2023-09-19T03:10:42;100075.06;;;17.07;54.88
32875;BME280;40468;42.128;24.750;2023-09-19T03:12:14;100076.09;;;17.04;55.08
32875;BME280;40468;42.128;24.750;2023-09-19T03:13:46;100075.25;;;17.04;54.93
32875;BME280;40468;42.128;24.750;2023-09-19T03:15:17;100074.31;;;17.05;54.79
32875;BME280;40468;42.128;24.750;2023-09-19T03:16:48;100067.47;;;17.02;54.93
32875;BME280;40468;42.128;24.750;2023-09-19T03:18:22;100069.75;;;16.94;55.10
32875;BME280;40468;42.128;24.750;2023-09-19T03:19:53;100071.75;;;16.91;55.02
32875;BME280;40468;42.128;24.750;2023-09-19T03:21:25;100067.88;;;16.83;55.45
32875;BME280;40468;42.128;24.750;2023-09-19T03:22:55;100060.75;;;16.71;56.00
32875;BME280;40468;42.128;24.750;2023-09-19T03:24:27;100062.94;;;16.65;56.22
32875;BME280;40468;42.128;24.750;2023-09-19T03:25:59;100071.78;;;16.64;56.14
32875;BME280;40468;42.128;24.750;2023-09-19T03:27:30;100069.03;;;16.65;56.06
32875;BME280;40468;42.128;24.750;2023-09-19T03:29:03;100064.44;;;16.69;55.64
32875;BME280;40468;42.128;24.750;2023-09-19T03:30:36;100058.97;;;16.72;55.82
32875;BME280;40468;42.128;24.750;2023-09-19T03:32:07;100062.31;;;16.74;55.47
32875;BME280;40468;42.128;24.750;2023-09-19T03:33:41;100065.72;;;16.76;55.47
32875;BME280;40468;42.128;24.750;2023-09-19T03:35:12;100063.03;;;16.77;55.43
32875;BME280;40468;42.128;24.750;2023-09-19T03:36:44;100067.13;;;16.81;55.33
32875;BME280;40468;42.128;24.750;2023-09-19T03:38:16;100067.03;;;16.83;55.22
32875;BME280;40468;42.128;24.750;2023-09-19T03:39:46;100066.91;;;16.85;55.17
32875;BME280;40468;42.128;24.750;2023-09-19T03:41:18;100070.38;;;16.85;55.42
32875;BME280;40468;42.128;24.750;2023-09-19T03:42:50;100068.78;;;16.82;55.39
32875;BME280;40468;42.128;24.750;2023-09-19T03:44:21;100070.69;;;16.80;55.29
32875;BME280;40468;42.128;24.750;2023-09-19T03:45:52;100070.91;;;16.77;55.34
32875;BME280;40468;42.128;24.750;2023-09-19T03:47:24;100069.28;;;16.75;55.25
32875;BME280;40468;42.128;24.750;2023-09-19T03:48:57;100070.22;;;16.74;55.54
32875;BME280;40468;42.128;24.750;2023-09-19T03:50:28;100071.91;;;16.75;55.52
32875;BME280;40468;42.128;24.750;2023-09-19T03:51:59;100075.31;;;16.77;55.52
32875;BME280;40468;42.128;24.750;2023-09-19T03:53:30;100073.41;;;16.79;55.21
32875;BME280;40468;42.128;24.750;2023-09-19T03:55:01;100074.38;;;16.78;55.39
32875;BME280;40468;42.128;24.750;2023-09-19T03:56:34;100070.03;;;16.77;55.35
32875;BME280;40468;42.128;24.750;2023-09-19T03:58:06;100069.13;;;16.78;55.44
32875;BME280;40468;42.128;24.750;2023-09-19T03:59:36;100066.38;;;16.79;55.43
32875;BME280;40468;42.128;24.750;2023-09-19T04:01:08;100075.09;;;16.80;55.43
32875;BME280;40468;42.128;24.750;2023-09-19T04:02:39;100078.59;;;16.80;55.31
32875;BME280;40468;42.128;24.750;2023-09-19T04:04:12;100073.63;;;16.76;55.29
32875;BME280;40468;42.128;24.750;2023-09-19T04:05:44;100080.72;;;16.74;55.37
32875;BME280;40468;42.128;24.750;2023-09-19T04:07:15;100084.16;;;16.76;55.35
32875;BME280;40468;42.128;24.750;2023-09-19T04:08:47;100078.88;;;16.76;55.44
32875;BME280;40468;42.128;24.750;2023-09-19T04:10:18;100076.25;;;16.76;55.41
32875;BME280;40468;42.128;24.750;2023-09-19T04:11:49;100070.31;;;16.72;55.51
32875;BME280;40468;42.128;24.750;2023-09-19T04:13:20;100077.38;;;16.72;55.33
32875;BME280;40468;42.128;24.750;2023-09-19T04:14:51;100080.00;;;16.72;55.50
32875;BME280;40468;42.128;24.750;2023-09-19T04:16:22;100081.69;;;16.73;55.67
32875;BME280;40468;42.128;24.750;2023-09-19T04:17:54;100083.38;;;16.74;55.47
32875;BME280;40468;42.128;24.750;2023-09-19T04:19:26;100083.19;;;16.77;55.33
32875;BME280;40468;42.128;24.750;2023-09-19T04:20:57;100078.69;;;16.79;55.36
32875;BME280;40468;42.128;24.750;2023-09-19T04:22:28;100083.94;;;16.79;55.39
32875;BME280;40468;42.128;24.750;2023-09-19T04:23:59;100078.81;;;16.77;55.35
32875;BME280;40468;42.128;24.750;2023-09-19T04:25:31;100076.16;;;16.77;55.19
32875;BME280;40468;42.128;24.750;2023-09-19T04:27:02;100079.63;;;16.78;55.37
32875;BME280;40468;42.128;24.750;2023-09-19T04:28:33;100077.94;;;16.77;55.35
32875;BME280;40468;42.128;24.750;2023-09-19T04:30:05;100081.44;;;16.77;55.43
32875;BME280;40468;42.128;24.750;2023-09-19T04:31:40;100071.84;;;16.76;55.34
32875;BME280;40468;42.128;24.750;2023-09-19T04:33:14;100077.00;;;16.78;55.41
32875;BME280;40468;42.128;24.750;2023-09-19T04:34:46;100079.63;;;16.78;55.21
32875;BME280;40468;42.128;24.750;2023-09-19T04:36:20;100084.78;;;16.79;55.38
32875;BME280;40468;42.128;24.750;2023-09-19T04:37:52;100081.31;;;16.79;55.30
32875;BME280;40468;42.128;24.750;2023-09-19T04:39:24;100082.16;;;16.79;55.48
32875;BME280;40468;42.128;24.750;2023-09-19T04:40:56;100088.25;;;16.80;55.46
32875;BME280;40468;42.128;24.750;2023-09-19T04:42:28;100082.91;;;16.81;55.38
32875;BME280;40468;42.128;24.750;2023-09-19T04:44:00;100078.47;;;16.82;55.47
32875;BME280;40468;42.128;24.750;2023-09-19T04:45:31;100087.13;;;16.84;55.33
32875;BME280;40468;42.128;24.750;2023-09-19T04:47:02;100078.19;;;16.87;55.40
32875;BME280;40468;42.128;24.750;2023-09-19T04:48:34;100079.84;;;16.88;55.37
32875;BME280;40468;42.128;24.750;2023-09-19T04:50:08;100076.28;;;16.89;55.36
32875;BME280;40468;42.128;24.750;2023-09-19T04:51:41;100078.81;;;16.90;55.35
32875;BME280;40468;42.128;24.750;2023-09-19T04:53:13;100078.81;;;16.90;55.36
32875;BME280;40468;42.128;24.750;2023-09-19T04:54:43;100077.84;;;16.91;55.35
32875;BME280;40468;42.128;24.750;2023-09-19T04:56:16;100076.94;;;16.92;55.42
32875;BME280;40468;42.128;24.750;2023-09-19T04:57:48;100071.66;;;16.92;55.45
32875;BME280;40468;42.128;24.750;2023-09-19T04:59:19;100075.97;;;16.93;55.43
32875;BME280;40468;42.128;24.750;2023-09-19T05:00:50;100075.22;;;16.91;55.42
32875;BME280;40468;42.128;24.750;2023-09-19T05:02:22;100069.13;;;16.91;55.50
32875;BME280;40468;42.128;24.750;2023-09-19T05:03:52;100068.28;;;16.90;55.49
32875;BME280;40468;42.128;24.750;2023-09-19T05:05:25;100076.94;;;16.92;55.44
32875;BME280;40468;42.128;24.750;2023-09-19T05:06:56;100075.22;;;16.91;55.48
32875;BME280;40468;42.128;24.750;2023-09-19T05:08:28;100066.41;;;16.92;55.34
32875;BME280;40468;42.128;24.750;2023-09-19T05:09:59;100071.47;;;16.95;55.39
32875;BME280;40468;42.128;24.750;2023-09-19T05:11:31;100073.88;;;16.98;55.40
32875;BME280;40468;42.128;24.750;2023-09-19T05:13:03;100073.97;;;16.97;55.57
32875;BME280;40468;42.128;24.750;2023-09-19T05:14:35;100079.22;;;16.97;55.52
32875;BME280;40468;42.128;24.750;2023-09-19T05:16:05;100082.63;;;16.99;55.33
32875;BME280;40468;42.128;24.750;2023-09-19T05:17:40;100077.03;;;17.03;55.39
32875;BME280;40468;42.128;24.750;2023-09-19T05:19:10;100078.72;;;17.04;55.43
32875;BME280;40468;42.128;24.750;2023-09-19T05:20:44;100077.97;;;17.02;55.45
32875;BME280;40468;42.128;24.750;2023-09-19T05:22:15;100081.56;;;17.01;55.38
32875;BME280;40468;42.128;24.750;2023-09-19T05:23:48;100080.81;;;16.99;55.53
32875;BME280;40468;42.128;24.750;2023-09-19T05:25:20;100081.03;;;16.96;55.61
32875;BME280;40468;42.128;24.750;2023-09-19T05:26:50;100084.72;;;16.94;55.72
32875;BME280;40468;42.128;24.750;2023-09-19T05:28:22;100079.34;;;16.95;55.83
32875;BME280;40468;42.128;24.750;2023-09-19T05:29:53;100081.88;;;16.97;55.81
32875;BME280;40468;42.128;24.750;2023-09-19T05:31:26;100074.94;;;16.96;55.79
32875;BME280;40468;42.128;24.750;2023-09-19T05:32:56;100085.25;;;16.99;55.69
32875;BME280;40468;42.128;24.750;2023-09-19T05:34:28;100080.72;;;17.01;55.88
32875;BME280;40468;42.128;24.750;2023-09-19T05:36:01;100086.84;;;17.01;55.80
32875;BME280;40468;42.128;24.750;2023-09-19T05:37:33;100088.28;;;17.05;55.59
32875;BME280;40468;42.128;24.750;2023-09-19T05:39:04;100083.78;;;17.08;55.68
32875;BME280;40468;42.128;24.750;2023-09-19T05:40:38;100091.25;;;17.14;55.54
32875;BME280;40468;42.128;24.750;2023-09-19T05:42:09;100088.97;;;17.22;55.46
32875;BME280;40468;42.128;24.750;2023-09-19T05:43:41;100096.00;;;17.34;55.20
32875;BME280;40468;42.128;24.750;2023-09-19T05:45:13;100087.56;;;17.42;55.32
32875;BME280;40468;42.128;24.750;2023-09-19T05:46:43;100095.47;;;17.55;55.34
32875;BME280;40468;42.128;24.750;2023-09-19T05:48:16;100094.94;;;17.62;54.99
32875;BME280;40468;42.128;24.750;2023-09-19T05:49:46;100100.28;;;17.73;54.96
32875;BME280;40468;42.128;24.750;2023-09-19T05:51:21;100096.22;;;17.82;54.80
32875;BME280;40468;42.128;24.750;2023-09-19T05:52:52;100096.50;;;17.90;54.73
32875;BME280;40468;42.128;24.750;2023-09-19T05:54:26;100096.91;;;17.97;54.44
32875;BME280;40468;42.128;24.750;2023-09-19T05:55:57;100092.88;;;18.04;54.45
32875;BME280;40468;42.128;24.750;2023-09-19T05:57:31;100093.53;;;18.08;54.38
32875;BME280;40468;42.128;24.750;2023-09-19T05:59:02;100096.66;;;18.13;54.17
32875;BME280;40468;42.128;24.750;2023-09-19T06:00:35;100091.16;;;18.16;54.26
32875;BME280;40468;42.128;24.750;2023-09-19T06:02:06;100090.75;;;18.22;54.12
32875;BME280;40468;42.128;24.750;2023-09-19T06:03:39;100081.19;;;18.32;54.17
32875;BME280;40468;42.128;24.750;2023-09-19T06:05:11;100079.47;;;18.44;53.73
32875;BME280;40468;42.128;24.750;2023-09-19T06:06:43;100072.66;;;18.53;53.63
32875;BME280;40468;42.128;24.750;2023-09-19T06:08:15;100073.56;;;18.64;53.46
32875;BME280;40468;42.128;24.750;2023-09-19T06:09:46;100070.88;;;18.77;53.32
32875;BME280;40468;42.128;24.750;2023-09-19T06:11:18;100063.59;;;18.92;53.03
32875;BME280;40468;42.128;24.750;2023-09-19T06:12:50;100067.00;;;19.05;52.92
32875;BME280;40468;42.128;24.750;2023-09-19T06:14:23;100067.13;;;19.15;52.65
32875;BME280;40468;42.128;24.750;2023-09-19T06:15:54;100069.06;;;19.24;52.53
32875;BME280;40468;42.128;24.750;2023-09-19T06:17:27;100063.06;;;19.33;52.33
32875;BME280;40468;42.128;24.750;2023-09-19T06:18:59;100064.03;;;19.44;52.27
32875;BME280;40468;42.128;24.750;2023-09-19T06:20:31;100070.28;;;19.54;52.13
32875;BME280;40468;42.128;24.750;2023-09-19T06:22:04;100069.78;;;19.60;52.09
32875;BME280;40468;42.128;24.750;2023-09-19T06:23:39;100069.09;;;19.69;51.78
32875;BME280;40468;42.128;24.750;2023-09-19T06:25:25;100070.31;;;19.65;51.47
32875;BME280;40468;42.128;24.750;2023-09-19T06:27:00;100069.78;;;19.60;51.73
32875;BME280;40468;42.128;24.750;2023-09-19T06:28:56;100074.50;;;19.68;51.82
32875;BME280;40468;42.128;24.750;2023-09-19T06:30:33;100072.22;;;19.74;51.59
32875;BME280;40468;42.128;24.750;2023-09-19T06:32:15;100069.22;;;19.79;51.53
32875;BME280;40468;42.128;24.750;2023-09-19T06:36:39;100060.75;;;20.08;51.80
32875;BME280;40468;42.128;24.750;2023-09-19T06:38:06;100057.84;;;20.11;51.53
32875;BME280;40468;42.128;24.750;2023-09-19T06:39:38;100064.22;;;20.19;51.94
32875;BME280;40468;42.128;24.750;2023-09-19T06:43:16;100061.22;;;20.88;51.73
32875;BME280;40468;42.128;24.750;2023-09-19T06:44:48;100052.66;;;21.27;51.39
32875;BME280;40468;42.128;24.750;2023-09-19T06:46:19;100053.97;;;21.73;50.97
32875;BME280;40468;42.128;24.750;2023-09-19T06:47:51;100057.75;;;22.20;50.55
32875;BME280;40468;42.128;24.750;2023-09-19T06:49:21;100056.78;;;22.60;49.97
32875;BME280;40468;42.128;24.750;2023-09-19T06:50:53;100058.19;;;22.84;49.60
32875;BME280;40468;42.128;24.750;2023-09-19T06:52:25;100056.50;;;23.02;49.18
32875;BME280;40468;42.128;24.750;2023-09-19T06:53:59;100054.06;;;23.28;49.12
32875;BME280;40468;42.128;24.750;2023-09-19T06:55:34;100050.03;;;23.52;48.73
32875;BME280;40468;42.128;24.750;2023-09-19T06:57:06;100049.38;;;23.77;48.52
32875;BME280;40468;42.128;24.750;2023-09-19T06:58:39;100054.69;;;24.05;47.74
32875;BME280;40468;42.128;24.750;2023-09-19T07:00:14;100042.38;;;24.22;47.48
32875;BME280;40468;42.128;24.750;2023-09-19T07:01:48;100051.97;;;24.33;46.79
32875;BME280;40468;42.128;24.750;2023-09-19T07:03:20;100043.06;;;24.06;46.80
32875;BME280;40468;42.128;24.750;2023-09-19T07:04:56;100049.47;;;23.86;47.00
32875;BME280;40468;42.128;24.750;2023-09-19T07:06:27;100045.47;;;23.72;46.92
32875;BME280;40468;42.128;24.750;2023-09-19T07:07:59;100043.91;;;23.69;46.85
32875;BME280;40468;42.128;24.750;2023-09-19T07:09:31;100045.66;;;23.70;47.07
32875;BME280;40468;42.128;24.750;2023-09-19T07:11:03;100040.22;;;24.07;46.72
32875;BME280;40468;42.128;24.750;2023-09-19T07:12:36;100045.66;;;24.51;46.25
32875;BME280;40468;42.128;24.750;2023-09-19T07:14:07;100045.78;;;24.86;45.63
32875;BME280;40468;42.128;24.750;2023-09-19T07:15:42;100042.34;;;24.93;45.24
32875;BME280;40468;42.128;24.750;2023-09-19T07:17:16;100045.66;;;25.13;45.03
32875;BME280;40468;42.128;24.750;2023-09-19T07:18:49;100046.28;;;25.33;44.70
32875;BME280;40468;42.128;24.750;2023-09-19T07:20:23;100036.38;;;25.52;44.85
32875;BME280;40468;42.128;24.750;2023-09-19T07:21:56;100044.41;;;25.60;44.11
32875;BME280;40468;42.128;24.750;2023-09-19T07:23:29;100041.84;;;25.42;43.68
32875;BME280;40468;42.128;24.750;2023-09-19T07:25:01;100041.50;;;25.45;43.86
32875;BME280;40468;42.128;24.750;2023-09-19T07:26:33;100042.63;;;25.69;44.03
32875;BME280;40468;42.128;24.750;2023-09-19T07:28:05;100039.91;;;26.11;42.99
32875;BME280;40468;42.128;24.750;2023-09-19T07:29:36;100038.63;;;26.40;41.67
32875;BME280;40468;42.128;24.750;2023-09-19T07:31:11;100035.81;;;26.49;40.95
32875;BME280;40468;42.128;24.750;2023-09-19T07:32:44;100039.84;;;26.78;41.13
32875;BME280;40468;42.128;24.750;2023-09-19T07:34:15;100041.13;;;27.15;40.81
32875;BME280;40468;42.128;24.750;2023-09-19T07:35:46;100049.06;;;27.48;40.21
32875;BME280;40468;42.128;24.750;2023-09-19T07:37:23;100042.25;;;27.45;39.48
32875;BME280;40468;42.128;24.750;2023-09-19T07:38:56;100035.06;;;27.37;40.12
32875;BME280;40468;42.128;24.750;2023-09-19T07:40:29;100031.34;;;27.47;40.32
32875;BME280;40468;42.128;24.750;2023-09-19T07:42:00;100025.88;;;27.79;40.02
32875;BME280;40468;42.128;24.750;2023-09-19T07:43:32;100021.41;;;28.26;39.31
32875;BME280;40468;42.128;24.750;2023-09-19T07:45:03;100018.59;;;28.65;37.93
32875;BME280;40468;42.128;24.750;2023-09-19T07:46:35;100014.97;;;28.96;37.87
32875;BME280;40468;42.128;24.750;2023-09-19T07:48:06;100010.09;;;29.44;37.92
32875;BME280;40468;42.128;24.750;2023-09-19T07:49:46;100015.75;;;30.00;37.24
32875;BME280;40468;42.128;24.750;2023-09-19T07:51:17;100010.66;;;30.48;35.92
32875;BME280;40468;42.128;24.750;2023-09-19T07:52:49;100015.63;;;30.51;34.88
32875;BME280;40468;42.128;24.750;2023-09-19T07:54:23;100007.00;;;30.56;34.94
32875;BME280;40468;42.128;24.750;2023-09-19T07:56:02;100005.97;;;30.57;34.43
32875;BME280;40468;42.128;24.750;2023-09-19T07:57:34;100007.41;;;30.53;34.68
32875;BME280;40468;42.128;24.750;2023-09-19T07:59:06;100011.34;;;30.57;34.10
32875;BME280;40468;42.128;24.750;2023-09-19T08:00:37;100003.28;;;30.57;33.92
32875;BME280;40468;42.128;24.750;2023-09-19T08:02:09;99998.91;;;30.28;33.52
32875;BME280;40468;42.128;24.750;2023-09-19T08:03:45;99994.31;;;30.07;34.10